EA3GYL La Torregassa ES current weather conditions

sailwx.info

Wind from 307 at 6 knots gusting 14

Air temperature 12.2° C
Dewpoint -4.8° C

Last reported at 2015-Jan-25 11:50 UTC.
Time now 2015-Jan-25 12:16 UTC

Location: N 41°17' E 001°31'.
View on Google Maps.

See reports from other nearby stations

  
Tides and Currents Weather Stations Pressure Air Temp Water Temp Dewpoint Dewpoint Depression Visibility Wind Speed Wind Dir Waves Ship Positions
date/time (UTC)wind fromknots sea level pressurealtimeterstation pressurevisibilityair tempwater tempwave heightnotes
2015-Jan-25 11:50 307 6 gusting 14 12.2
2015-Jan-25 11:40 312 7 gusting 15 12.2
2015-Jan-25 11:30 320 7 gusting 16 12.2
2015-Jan-25 11:20 315 7 gusting 17 12.2
2015-Jan-25 11:10 312 7 gusting 16 12.2
2015-Jan-25 11:00 318 8 gusting 18 12.2
2015-Jan-25 10:50 322 9 gusting 18 11.7
2015-Jan-25 10:40 319 7 gusting 16 11.7
2015-Jan-25 10:30 316 6 gusting 15 11.7
2015-Jan-25 10:20 318 7 gusting 15 11.1
2015-Jan-25 10:10 338 7 gusting 13 11.1
2015-Jan-25 10:00 338 8 gusting 17 11.1
2015-Jan-25 09:50 327 8 gusting 15 10.6
2015-Jan-25 09:40 327 8 gusting 19 10.6
2015-Jan-25 09:30 332 6 gusting 13 10.6
2015-Jan-25 09:20 327 6 gusting 14 10.0
2015-Jan-25 09:10 326 6 gusting 16 10.0
2015-Jan-25 09:00 337 7 gusting 15 9.4
2015-Jan-25 08:50 325 7 gusting 16 9.4
2015-Jan-25 08:40 327 6 gusting 15 9.4
2015-Jan-25 08:30 330 6 gusting 15 8.9
2015-Jan-25 08:20 327 8 gusting 19 8.9
2015-Jan-25 08:10 327 6 gusting 18 8.3
2015-Jan-25 08:00 328 6 gusting 16 8.3
2015-Jan-25 07:50 326 6 gusting 13 8.3
2015-Jan-25 07:40 331 6 gusting 14 8.3
2015-Jan-25 07:30 324 7 gusting 18 8.3
2015-Jan-25 07:20 321 6 gusting 16 8.3
2015-Jan-25 07:10 331 6 gusting 13 7.8
2015-Jan-25 07:00 330 6 gusting 14 7.8
2015-Jan-25 06:50 320 6 gusting 17 8.3
2015-Jan-25 06:40 328 8 gusting 16 8.3
2015-Jan-25 06:30 328 6 gusting 19 8.3
2015-Jan-25 06:20 326 6 gusting 13 8.3
2015-Jan-25 06:10 332 5 gusting 13 8.9
2015-Jan-25 06:00 336 7 gusting 13 8.9
2015-Jan-25 05:50 345 5 gusting 13 8.3
2015-Jan-25 05:40 001 6 gusting 15 8.3
2015-Jan-25 05:30 343 5 gusting 18 8.3
2015-Jan-25 05:20 343 1 gusting 6 8.3
2015-Jan-25 05:10 348 0 gusting 3 8.3
2015-Jan-25 05:00 333 3 gusting 11 8.9
2015-Jan-25 04:50 318 2 gusting 7 8.9
2015-Jan-25 04:40 327 4 gusting 10 8.9
2015-Jan-25 04:30 331 4 gusting 7 8.9
2015-Jan-25 04:20 347 4 gusting 9 8.9
2015-Jan-25 04:10 341 4 gusting 11 8.9
2015-Jan-25 04:00 359 5 gusting 14 8.9
2015-Jan-25 03:50 351 7 gusting 18 8.9
2015-Jan-25 03:40 355 7 gusting 17 8.9
2015-Jan-25 03:30 346 7 gusting 18 8.9
2015-Jan-25 03:20 350 6 gusting 14 9.4
2015-Jan-25 03:10 337 8 gusting 17 9.4
2015-Jan-25 03:00 338 7 gusting 19 9.4
2015-Jan-25 02:50 348 4 gusting 13 9.4
2015-Jan-25 02:40 345 2 gusting 6 9.4
2015-Jan-25 02:30 336 6 gusting 15 10.0
2015-Jan-25 02:20 343 6 gusting 16 10.0
2015-Jan-25 02:10 329 6 gusting 17 10.6
2015-Jan-25 02:00 326 5 gusting 12 10.0
2015-Jan-25 01:50 328 6 gusting 16 10.6
2015-Jan-25 01:40 326 7 gusting 20 10.6
2015-Jan-25 01:30 327 8 gusting 19 10.6
2015-Jan-25 01:20 323 11 gusting 21 10.6
2015-Jan-25 01:10 327 9 gusting 26 11.1
2015-Jan-25 01:00 329 6 gusting 15 11.1
2015-Jan-25 00:50 351 6 gusting 13 11.1
2015-Jan-25 00:40 347 4 gusting 10 11.1
2015-Jan-25 00:30 345 5 gusting 13 11.1
2015-Jan-25 00:20 354 6 gusting 15 10.6
2015-Jan-25 00:10 326 4 gusting 11 10.0
2015-Jan-25 00:00 291 2 gusting 9 8.9
2015-Jan-24 23:50 237 1 gusting 4 8.3
2015-Jan-24 23:40 8.3
2015-Jan-24 23:30 079 0 gusting 5 8.9
2015-Jan-24 23:20 259 0 gusting 6 8.9
2015-Jan-24 23:10 248 4 gusting 9 8.9
2015-Jan-24 23:00 219 1 gusting 4 8.9
2015-Jan-24 22:50 165 0 gusting 4 9.4
2015-Jan-24 22:40 295 3 gusting 11 10.0
2015-Jan-24 22:30 284 7 gusting 18 10.0
2015-Jan-24 22:20 284 10 gusting 18 10.0
2015-Jan-24 22:10 287 9 gusting 20 10.0
2015-Jan-24 22:00 281 7 gusting 16 10.0
2015-Jan-24 21:50 283 6 gusting 13 10.6
2015-Jan-24 21:40 287 6 gusting 15 10.6
2015-Jan-24 21:30 289 6 gusting 16 10.6
2015-Jan-24 21:20 289 9 gusting 17 10.6
2015-Jan-24 21:10 288 7 gusting 15 10.0
2015-Jan-24 21:00 287 6 gusting 17 9.4
2015-Jan-24 20:50 290 6 gusting 16 9.4
2015-Jan-24 20:40 288 7 gusting 14 10.0
2015-Jan-24 20:30 291 8 gusting 18 10.0
2015-Jan-24 20:20 287 10 gusting 19 10.0
2015-Jan-24 20:10 292 9 gusting 22 10.0
2015-Jan-24 20:00 289 10 gusting 23 10.6
2015-Jan-24 19:50 287 12 gusting 19 10.6
2015-Jan-24 19:40 288 10 gusting 23 10.6
2015-Jan-24 19:30 287 8 gusting 18 10.6
2015-Jan-24 19:20 287 10 gusting 22 11.1
2015-Jan-24 19:10 288 11 gusting 19 11.1
2015-Jan-24 19:00 292 12 gusting 23 11.1
2015-Jan-24 18:50 293 12 gusting 21 11.1
2015-Jan-24 18:40 294 12 gusting 19 11.7
2015-Jan-24 18:30 296 13 gusting 27 11.7
2015-Jan-24 18:20 295 14 gusting 27 11.7
2015-Jan-24 18:10 295 13 gusting 24 12.2
2015-Jan-24 18:00 299 13 gusting 20 12.2
2015-Jan-24 17:50 301 13 gusting 24 12.2
2015-Jan-24 17:40 301 12 gusting 26 12.2
2015-Jan-24 17:30 301 12 gusting 22 11.7
2015-Jan-24 17:20 297 13 gusting 25 11.7
2015-Jan-24 17:10 300 12 gusting 20 11.7
2015-Jan-24 17:00 301 10 gusting 23 11.7
2015-Jan-24 16:50 302 13 gusting 25 11.7
2015-Jan-24 16:40 301 13 gusting 28 11.7
2015-Jan-24 16:30 308 13 gusting 26 11.7
2015-Jan-24 16:20 304 12 gusting 27 11.7
2015-Jan-24 16:10 308 12 gusting 24 12.2
2015-Jan-24 16:00 305 13 gusting 23 12.2
2015-Jan-24 15:50 314 13 gusting 24 12.8
2015-Jan-24 15:40 310 7 gusting 26 13.3
2015-Jan-24 15:30 320 5 gusting 14 13.9
2015-Jan-24 15:20 341 4 gusting 13 13.9
2015-Jan-24 15:10 317 4 gusting 14 13.9
2015-Jan-24 15:00 095 1 gusting 7 14.4
2015-Jan-24 14:50 155 1 gusting 6 14.4
2015-Jan-24 14:40 240 2 gusting 8 13.9
2015-Jan-24 14:30 270 1 gusting 8 13.9
2015-Jan-24 14:20 337 6 gusting 14 13.3
2015-Jan-24 14:10 335 5 gusting 15 13.9
2015-Jan-24 14:00 348 6 gusting 14 13.9
2015-Jan-24 13:50 318 3 gusting 13 13.9
2015-Jan-24 13:40 319 4 gusting 13 13.3
2015-Jan-24 13:30 316 6 gusting 13 12.2
2015-Jan-24 13:20 318 7 gusting 15 12.2
2015-Jan-24 13:10 314 6 gusting 14 12.8
2015-Jan-24 13:00 317 9 gusting 22 13.3
2015-Jan-24 12:50 326 6 gusting 19 13.9
2015-Jan-24 12:40 344 7 gusting 15 13.9
2015-Jan-24 12:30 337 8 gusting 18 13.9
2015-Jan-24 12:20 343 9 gusting 19 13.9
2015-Jan-24 12:10 340 8 gusting 15 13.9
2015-Jan-24 12:00 331 7 gusting 17 13.9
2015-Jan-24 11:50 333 8 gusting 17 14.4
2015-Jan-24 11:40 325 6 gusting 13 13.9
2015-Jan-24 11:30 321 6 gusting 13 13.3
2015-Jan-24 11:20 320 6 gusting 15 13.3
2015-Jan-24 11:10 327 6 gusting 13 13.9
2015-Jan-24 11:00 332 7 gusting 15 13.3
2015-Jan-24 10:50 333 8 gusting 19 13.3
2015-Jan-24 10:40 334 9 gusting 18 13.3
2015-Jan-24 10:30 331 7 gusting 15 13.9
2015-Jan-24 10:20 334 6 gusting 13 13.3
2015-Jan-24 10:10 006 3 gusting 13 12.8
2015-Jan-24 10:00 135 3 gusting 11 11.7
2015-Jan-24 09:50 145 1 gusting 4 11.1
2015-Jan-24 09:40 157 0 gusting 3 10.6
2015-Jan-24 09:30 134 0 gusting 3 10.0
2015-Jan-24 09:20 146 1 gusting 4 9.4
2015-Jan-24 08:50 145 1 gusting 5 8.9
2015-Jan-24 08:40 132 1 gusting 6 8.3
2015-Jan-24 08:30 138 2 gusting 6 8.3
2015-Jan-24 08:20 121 2 gusting 7 8.9
2015-Jan-24 08:10 344 2 gusting 7 10.6
2015-Jan-24 08:00 340 5 gusting 11 10.0
2015-Jan-24 07:50 347 6 gusting 17 10.0
2015-Jan-24 07:40 345 6 gusting 16 10.6
2015-Jan-24 07:30 344 6 gusting 14 10.6
2015-Jan-24 07:20 340 5 gusting 11 10.6
2015-Jan-24 07:10 338 6 gusting 14 10.6
2015-Jan-24 07:00 347 5 gusting 13 10.0
2015-Jan-24 06:50 340 6 gusting 14 10.0
2015-Jan-24 05:50 341 8 gusting 19 10.0
2015-Jan-24 05:40 335 7 gusting 16 10.0
2015-Jan-24 05:30 336 6 gusting 13 10.0
2015-Jan-24 05:20 338 6 gusting 14 10.0
2015-Jan-24 05:10 342 6 gusting 15 10.0
2015-Jan-24 05:00 330 4 gusting 11 10.0
2015-Jan-24 04:50 315 4 gusting 10 9.4
2015-Jan-24 04:40 304 2 gusting 6 9.4
2015-Jan-24 04:30 312 2 gusting 6 9.4
2015-Jan-24 04:20 307 3 gusting 10 10.0
2015-Jan-24 04:10 295 2 gusting 8 9.4
2015-Jan-24 04:00 319 4 gusting 13 9.4
2015-Jan-24 03:50 335 6 gusting 14 9.4
2015-Jan-24 03:40 337 7 gusting 15 9.4
2015-Jan-24 03:30 340 8 gusting 18 10.0
2015-Jan-24 03:20 341 9 gusting 17 10.0
2015-Jan-24 03:10 345 8 gusting 17 10.6
2015-Jan-24 03:00 345 8 gusting 16 10.6
2015-Jan-24 02:50 340 9 gusting 14 10.6
2015-Jan-24 02:40 339 8 gusting 15 10.6
2015-Jan-24 02:30 339 8 gusting 16 10.6
2015-Jan-24 02:20 343 8 gusting 19 10.6
2015-Jan-24 02:10 346 7 gusting 14 10.6
2015-Jan-24 02:00 343 8 gusting 18 10.6
2015-Jan-24 01:50 344 8 gusting 19 10.6
2015-Jan-24 01:40 338 7 gusting 18 10.6
2015-Jan-24 01:30 336 9 gusting 17 10.6
2015-Jan-24 01:20 343 8 gusting 17 10.6
2015-Jan-24 01:10 351 8 gusting 18 10.6
2015-Jan-24 01:00 344 8 gusting 16 10.6
2015-Jan-24 00:50 346 7 gusting 14 10.6
2015-Jan-24 00:40 342 7 gusting 14 10.6
2015-Jan-24 00:30 341 8 gusting 16 10.6
2015-Jan-24 00:20 339 8 gusting 18 10.6
2015-Jan-24 00:10 341 7 gusting 19 10.6
2015-Jan-24 00:00 331 7 gusting 16 10.6
2015-Jan-23 23:50 331 6 gusting 15 10.6
2015-Jan-23 23:40 332 7 gusting 14 11.1
2015-Jan-23 23:30 329 7 gusting 18 11.1
2015-Jan-23 23:20 340 7 gusting 15 11.1
2015-Jan-23 23:10 334 7 gusting 16 11.1
2015-Jan-23 23:00 343 6 gusting 13 11.1
2015-Jan-23 22:50 339 7 gusting 13 11.1
2015-Jan-23 22:40 333 8 gusting 15 10.6
2015-Jan-23 22:30 335 6 gusting 15 10.6
2015-Jan-23 22:20 339 7 gusting 14 10.6
2015-Jan-23 22:10 332 7 gusting 17 10.6
2015-Jan-23 22:00 329 8 gusting 17 10.6
2015-Jan-23 21:50 328 8 gusting 15 10.6
2015-Jan-23 21:40 332 6 gusting 14 10.0
2015-Jan-23 21:30 336 8 gusting 18 10.6
2015-Jan-23 21:20 343 7 gusting 11 10.0
2015-Jan-23 21:00 325 6 gusting 13 10.0
2015-Jan-23 20:50 323 6 gusting 13 10.0
2015-Jan-23 20:40 324 7 gusting 16 10.6
2015-Jan-23 20:30 324 6 gusting 15 10.0
2015-Jan-23 20:20 323 7 gusting 17 9.4
2015-Jan-23 20:10 313 9 gusting 18 9.4
2015-Jan-23 20:00 316 10 gusting 20 9.4
2015-Jan-23 19:50 307 11 gusting 24 9.4
2015-Jan-23 19:40 305 12 gusting 24 9.4
2015-Jan-23 19:30 302 12 gusting 26 10.0
2015-Jan-23 19:20 303 13 gusting 26 10.0
2015-Jan-23 19:10 303 11 gusting 24 10.0
2015-Jan-23 19:00 302 13 gusting 24 10.6
2015-Jan-23 18:50 303 13 gusting 21 10.6
2015-Jan-23 18:40 300 11 gusting 22 10.6
2015-Jan-23 18:30 300 9 gusting 20 10.6
2015-Jan-23 18:20 297 10 gusting 19 11.1
2015-Jan-23 18:10 297 10 gusting 20 11.1
2015-Jan-23 18:00 298 10 gusting 18 11.1
2015-Jan-23 17:50 301 10 gusting 18 11.1
2015-Jan-23 17:40 299 10 gusting 19 11.1
2015-Jan-23 17:30 302 11 gusting 21 11.7
2015-Jan-23 17:20 299 13 gusting 26 11.7
2015-Jan-23 17:10 300 11 gusting 22 11.7
2015-Jan-23 17:00 299 12 gusting 20 11.7
2015-Jan-23 16:50 301 11 gusting 21 11.7
2015-Jan-23 16:40 300 11 gusting 21 11.7
2015-Jan-23 16:30 298 10 gusting 20 12.2
2015-Jan-23 16:20 300 9 gusting 18 12.2
2015-Jan-23 16:10 304 10 gusting 19 12.2
2015-Jan-23 16:00 305 10 gusting 19 12.2
2015-Jan-23 15:50 304 9 gusting 19 12.2
2015-Jan-23 15:40 299 11 gusting 18 12.2
2015-Jan-23 15:30 299 11 gusting 22 12.2
2015-Jan-23 15:20 302 10 gusting 19 12.2
2015-Jan-23 15:10 303 11 gusting 19 12.2
2015-Jan-23 15:00 305 9 gusting 19 12.2
2015-Jan-23 14:50 302 8 gusting 18 12.2
2015-Jan-23 14:40 303 9 gusting 19 12.2
2015-Jan-23 14:30 300 9 gusting 19 12.2
2015-Jan-23 14:20 303 9 gusting 17 12.2
2015-Jan-23 14:10 308 8 gusting 18 12.2
2015-Jan-23 14:00 306 7 gusting 16 12.2
2015-Jan-23 13:50 308 8 gusting 16 12.2
2015-Jan-23 13:40 307 8 gusting 18 12.2
2015-Jan-23 13:30 308 7 gusting 15 12.2
2015-Jan-23 13:20 302 8 gusting 15 12.2
2015-Jan-23 13:10 309 8 gusting 15 12.2